createdAt,value
2018-10-16T00:00:19.206Z,11.58
2018-10-16T00:02:48.439Z,11.60
2018-10-16T00:05:18.550Z,11.62
2018-10-16T00:07:47.396Z,11.59
2018-10-16T00:10:21.269Z,11.61
2018-10-16T00:12:50.099Z,11.64
2018-10-16T00:15:18.810Z,11.65
2018-10-16T00:17:48.509Z,11.62
2018-10-16T00:20:17.337Z,11.62
2018-10-16T00:22:46.175Z,11.57
2018-10-16T00:25:16.793Z,11.37
2018-10-16T00:27:45.633Z,11.37
2018-10-16T00:30:14.369Z,11.22
2018-10-16T00:32:43.248Z,11.25
2018-10-16T00:35:12.558Z,11.21
2018-10-16T00:37:41.364Z,11.19
2018-10-16T00:40:10.685Z,11.15
2018-10-16T00:44:08.500Z,11.16
2018-10-16T00:46:37.540Z,11.09
2018-10-16T00:49:06.406Z,11.04
2018-10-16T00:51:35.270Z,11.10
2018-10-16T00:54:04.070Z,11.06
2018-10-16T00:56:32.764Z,11.10
2018-10-16T00:59:01.562Z,10.98
2018-10-16T01:01:31.921Z,10.95
2018-10-16T01:04:02.732Z,10.83
2018-10-16T01:06:32.136Z,10.73
2018-10-16T01:09:00.864Z,10.40
2018-10-16T01:11:29.725Z,10.11
2018-10-16T01:13:59.149Z,9.98
2018-10-16T01:16:28.354Z,9.97
2018-10-16T01:18:57.164Z,9.96
2018-10-16T01:21:25.973Z,10.04
2018-10-16T01:23:54.700Z,10.10
2018-10-16T01:26:23.377Z,10.10
2018-10-16T01:28:52.132Z,10.17
2018-10-16T01:31:20.825Z,10.21
2018-10-16T01:33:53.190Z,10.23
2018-10-16T01:36:23.863Z,10.21
2018-10-16T01:38:53.853Z,10.37
2018-10-16T01:41:24.091Z,10.16
2018-10-16T01:43:54.085Z,10.12
2018-10-16T01:46:22.756Z,10.01
2018-10-16T01:48:51.369Z,9.84
2018-10-16T01:51:20.151Z,9.92
2018-10-16T01:53:49.004Z,9.79
2018-10-16T01:56:17.821Z,9.79
2018-10-16T01:58:51.116Z,9.72
2018-10-16T02:01:20.488Z,9.77
2018-10-16T02:03:49.325Z,9.76
2018-10-16T02:06:18.133Z,9.70
2018-10-16T02:08:47.885Z,9.66
2018-10-16T02:11:16.856Z,9.63
2018-10-16T02:13:45.698Z,9.58
2018-10-16T02:16:16.036Z,9.58
2018-10-16T02:18:46.623Z,9.55
2018-10-16T02:21:17.300Z,9.45
2018-10-16T02:23:47.928Z,9.39
2018-10-16T02:26:19.851Z,9.37
2018-10-16T02:28:50.937Z,9.40
2018-10-16T02:31:19.628Z,9.34
2018-10-16T02:33:48.358Z,9.22
2018-10-16T02:36:17.149Z,9.23
2018-10-16T02:38:48.637Z,9.13
2018-10-16T02:41:18.311Z,9.17
2018-10-16T02:43:47.193Z,9.20
2018-10-16T02:46:16.037Z,9.23
2018-10-16T02:48:44.741Z,9.27
2018-10-16T02:51:13.441Z,9.30
2018-10-16T02:53:42.001Z,9.36
2018-10-16T02:56:10.708Z,9.36
2018-10-16T02:58:39.502Z,9.43
2018-10-16T03:01:08.843Z,9.37
2018-10-16T03:03:39.751Z,9.32
2018-10-16T03:06:08.493Z,9.30
2018-10-16T03:08:38.048Z,9.27
2018-10-16T03:11:06.908Z,9.24
2018-10-16T03:13:35.678Z,9.22
2018-10-16T03:16:04.394Z,9.25
2018-10-16T03:18:33.067Z,9.26
2018-10-16T03:21:01.765Z,9.20
2018-10-16T03:23:30.491Z,8.92
2018-10-16T03:25:59.092Z,8.87
2018-10-16T03:28:27.887Z,8.89
2018-10-16T03:30:56.669Z,8.86
2018-10-16T03:33:25.326Z,8.46
2018-10-16T03:35:53.908Z,8.46
2018-10-16T03:38:24.048Z,8.35
2018-10-16T03:40:54.264Z,8.29
2018-10-16T03:43:23.889Z,8.36
2018-10-16T03:45:52.605Z,8.45
2018-10-16T03:48:21.275Z,8.47
2018-10-16T03:50:49.841Z,8.41
2018-10-16T03:53:18.520Z,8.35
2018-10-16T03:55:47.105Z,8.37
2018-10-16T03:58:16.005Z,8.40
2018-10-16T04:00:44.619Z,8.37
2018-10-16T04:03:14.457Z,8.28
2018-10-16T04:05:43.158Z,8.27
2018-10-16T04:08:11.820Z,8.25
2018-10-16T04:10:40.537Z,8.19
2018-10-16T04:13:09.229Z,8.21
2018-10-16T04:15:37.877Z,8.22
2018-10-16T04:18:06.512Z,8.15
2018-10-16T04:20:35.337Z,8.16
2018-10-16T04:23:03.924Z,8.07
2018-10-16T04:25:32.610Z,8.16
2018-10-16T04:28:01.159Z,7.98
2018-10-16T04:30:29.830Z,8.01
2018-10-16T04:32:58.705Z,8.09
2018-10-16T04:35:27.311Z,8.06
2018-10-16T04:37:56.027Z,8.06
2018-10-16T04:40:24.812Z,8.08
2018-10-16T04:42:53.418Z,8.12
2018-10-16T04:45:22.074Z,8.08
2018-10-16T04:47:50.640Z,7.83
2018-10-16T04:50:19.189Z,7.93
2018-10-16T04:52:48.017Z,7.97
2018-10-16T04:55:16.750Z,7.96
2018-10-16T04:57:45.438Z,7.79
2018-10-16T05:00:14.218Z,7.78
2018-10-16T05:02:43.635Z,7.84
2018-10-16T05:05:24.508Z,7.89
2018-10-16T05:08:00.845Z,7.85
2018-10-16T05:10:29.674Z,7.88
2018-10-16T05:12:58.526Z,7.59
2018-10-16T05:15:34.276Z,7.64
2018-10-16T05:18:03.242Z,7.63
2018-10-16T05:20:32.443Z,7.51
2018-10-16T05:23:02.184Z,7.41
2018-10-16T05:25:31.520Z,7.51
2018-10-16T05:28:04.368Z,7.58
2018-10-16T05:30:33.991Z,7.30
2018-10-16T05:33:02.921Z,7.31
2018-10-16T05:35:31.768Z,7.42
2018-10-16T05:38:01.011Z,7.53
2018-10-16T05:40:30.672Z,7.35
2018-10-16T05:43:01.829Z,7.27
2018-10-16T05:45:33.521Z,7.28
2018-10-16T05:48:03.019Z,7.36
2018-10-16T05:50:31.955Z,7.50
2018-10-16T05:53:01.530Z,7.56
2018-10-16T05:55:30.423Z,7.53
2018-10-16T05:57:59.282Z,7.53
2018-10-16T06:00:40.551Z,7.44
2018-10-16T06:03:13.814Z,7.27
2018-10-16T06:05:45.463Z,7.37
2018-10-16T06:08:14.482Z,7.38
2018-10-16T06:10:43.330Z,7.49
2018-10-16T06:13:14.777Z,7.65
2018-10-16T06:15:44.681Z,7.85
2018-10-16T06:18:13.512Z,7.92
2018-10-16T06:20:42.125Z,8.17
2018-10-16T06:23:11.050Z,8.19
2018-10-16T06:25:39.926Z,8.34
2018-10-16T06:28:16.220Z,8.58
2018-10-16T06:30:44.961Z,8.77
2018-10-16T06:33:14.583Z,8.91
2018-10-16T06:35:43.522Z,9.34
2018-10-16T06:38:12.273Z,9.50
2018-10-16T06:40:40.896Z,9.46
2018-10-16T06:43:09.755Z,9.70
2018-10-16T06:45:38.641Z,9.87
2018-10-16T06:48:07.847Z,10.30
2018-10-16T06:50:36.672Z,10.64
2018-10-16T06:53:09.926Z,11.08
2018-10-16T06:55:38.934Z,12.23
2018-10-16T06:58:08.284Z,14.11
2018-10-16T07:00:37.117Z,15.71
2018-10-16T07:03:06.700Z,17.97
2018-10-16T07:05:35.438Z,19.43
2018-10-16T07:08:04.330Z,20.31
2018-10-16T07:10:33.028Z,21.16
2018-10-16T07:13:02.067Z,22.62
2018-10-16T07:15:30.911Z,22.81
2018-10-16T07:17:59.807Z,22.83
2018-10-16T07:20:28.649Z,23.19
2018-10-16T07:22:57.481Z,24.39
2018-10-16T07:25:26.344Z,25.06
2018-10-16T07:27:55.145Z,25.92
2018-10-16T07:30:23.891Z,26.06
2018-10-16T07:33:00.486Z,26.10
2018-10-16T07:35:30.420Z,26.23
2018-10-16T07:37:59.341Z,27.17
2018-10-16T07:40:28.179Z,27.15
2018-10-16T07:42:57.884Z,27.30
2018-10-16T07:45:27.371Z,28.46
2018-10-16T07:47:56.211Z,29.01
2018-10-16T07:50:24.994Z,29.58
2018-10-16T07:52:53.846Z,30.42
2018-10-16T07:55:22.688Z,31.22
2018-10-16T07:57:51.485Z,29.37
2018-10-16T08:00:20.395Z,28.98
2018-10-16T08:02:49.349Z,30.36
2018-10-16T08:05:18.169Z,31.35
2018-10-16T08:07:47.042Z,31.79
2018-10-16T08:10:15.941Z,32.29
2018-10-16T08:12:44.726Z,32.58
2018-10-16T08:15:13.689Z,32.01
2018-10-16T08:17:42.734Z,30.71
2018-10-16T08:20:11.363Z,31.07
2018-10-16T08:22:40.181Z,31.74
2018-10-16T08:25:09.042Z,31.52
2018-10-16T08:27:37.969Z,32.21
2018-10-16T08:30:08.399Z,31.96
2018-10-16T08:32:37.173Z,32.31
2018-10-16T08:35:06.433Z,32.36
2018-10-16T08:39:50.172Z,32.95
2018-10-16T08:43:38.080Z,33.36
2018-10-16T08:46:17.803Z,30.86
2018-10-16T08:48:58.152Z,31.33
2018-10-16T08:51:36.255Z,31.32
2018-10-16T08:54:05.117Z,32.15
2018-10-16T08:56:34.104Z,32.20
2018-10-16T08:59:03.282Z,31.35
2018-10-16T09:01:32.174Z,30.15
2018-10-16T09:04:01.877Z,30.82
2018-10-16T09:06:30.950Z,31.53
2018-10-16T09:08:59.779Z,30.93
2018-10-16T09:11:29.139Z,28.94
2018-10-16T09:13:57.946Z,29.41
2018-10-16T09:16:26.718Z,30.19
2018-10-16T09:18:55.528Z,29.95
2018-10-16T09:21:24.273Z,29.26
2018-10-16T09:23:59.065Z,28.90
2018-10-16T09:26:35.305Z,29.93
2018-10-16T09:29:06.571Z,30.03
2018-10-16T09:31:37.273Z,27.90
2018-10-16T09:34:06.064Z,29.27
2018-10-16T09:36:34.693Z,30.11
2018-10-16T09:39:03.893Z,31.39
2018-10-16T09:41:32.745Z,30.05
2018-10-16T09:44:01.584Z,29.63
2018-10-16T09:46:30.505Z,31.06
2018-10-16T09:48:59.428Z,28.04
2018-10-16T09:51:28.217Z,27.14
2018-10-16T09:53:57.177Z,29.07
2018-10-16T09:56:26.018Z,30.20
2018-10-16T09:58:56.722Z,29.17
2018-10-16T10:01:30.650Z,29.97
2018-10-16T10:04:00.610Z,30.06
2018-10-16T10:06:29.586Z,27.71
2018-10-16T10:08:58.624Z,28.77
2018-10-16T10:11:29.004Z,27.16
2018-10-16T10:13:57.891Z,27.89
2018-10-16T10:16:32.485Z,27.36
2018-10-16T10:19:01.421Z,27.95
2018-10-16T10:21:30.157Z,27.19
2018-10-16T10:23:59.048Z,28.43
2018-10-16T10:26:27.753Z,28.35
2018-10-16T10:28:57.498Z,27.45
2018-10-16T10:31:26.603Z,27.42
2018-10-16T10:33:55.333Z,27.44
2018-10-16T10:36:24.255Z,26.99
2018-10-16T10:38:53.140Z,27.62
2018-10-16T10:41:21.891Z,26.59
2018-10-16T10:43:50.912Z,24.73
2018-10-16T10:46:19.761Z,25.21
2018-10-16T10:48:48.468Z,23.81
2018-10-16T10:51:17.394Z,23.37
2018-10-16T10:53:45.999Z,23.90
2018-10-16T10:56:14.710Z,23.45
2018-10-16T10:58:43.431Z,24.27
2018-10-16T11:01:12.289Z,23.75
2018-10-16T11:03:41.259Z,23.50
2018-10-16T11:06:09.740Z,23.15
2018-10-16T11:08:38.577Z,22.61
2018-10-16T11:11:14.679Z,21.94
2018-10-16T11:13:43.607Z,21.92
2018-10-16T11:16:12.685Z,21.68
2018-10-16T11:18:41.392Z,21.32
2018-10-16T11:21:10.324Z,21.69
2018-10-16T11:23:39.174Z,21.57
2018-10-16T11:26:08.074Z,21.83
2018-10-16T11:28:39.421Z,21.44
2018-10-16T11:31:08.175Z,21.18
2018-10-16T11:33:37.004Z,21.86
2018-10-16T11:36:05.733Z,22.02
2018-10-16T11:38:34.573Z,21.80
2018-10-16T11:41:03.257Z,21.75
2018-10-16T11:43:32.044Z,21.55
2018-10-16T11:46:00.861Z,22.21
2018-10-16T11:48:29.623Z,22.23
2018-10-16T11:50:58.525Z,22.67
2018-10-16T11:53:27.384Z,22.15
2018-10-16T11:55:58.247Z,22.24
2018-10-16T11:58:26.977Z,22.65
2018-10-16T12:00:55.756Z,23.46
2018-10-16T12:03:24.375Z,23.94
2018-10-16T12:05:53.240Z,22.51
2018-10-16T12:08:22.162Z,21.79
2018-10-16T12:10:51.701Z,22.21
2018-10-16T12:13:20.362Z,21.95
2018-10-16T12:15:49.072Z,21.57
2018-10-16T12:18:31.736Z,22.18
2018-10-16T12:21:30.768Z,22.82
2018-10-16T12:23:59.559Z,22.33
2018-10-16T12:26:28.506Z,22.79
2018-10-16T12:28:57.386Z,22.81
2018-10-16T12:31:26.452Z,23.05
2018-10-16T12:33:55.047Z,22.49
2018-10-16T12:36:23.907Z,23.08
2018-10-16T12:38:52.690Z,23.17
2018-10-16T12:41:21.345Z,23.39
2018-10-16T12:43:50.138Z,23.30
2018-10-16T12:46:18.682Z,23.86
2018-10-16T12:48:47.579Z,24.59
2018-10-16T12:51:16.591Z,24.30
2018-10-16T12:53:45.322Z,23.94
2018-10-16T12:56:15.273Z,24.47
2018-10-16T12:58:44.012Z,24.05
2018-10-16T13:01:12.636Z,23.88
2018-10-16T13:03:41.560Z,22.94
2018-10-16T13:06:10.252Z,23.53
2018-10-16T13:08:39.088Z,24.31
2018-10-16T13:11:07.852Z,25.31
2018-10-16T13:13:36.531Z,26.04
2018-10-16T13:16:05.478Z,26.35
2018-10-16T13:18:34.130Z,25.61
2018-10-16T13:21:02.850Z,24.93
2018-10-16T13:23:31.724Z,24.96
2018-10-16T13:26:00.411Z,25.24
2018-10-16T13:28:29.129Z,25.84
2018-10-16T13:30:57.974Z,26.35
2018-10-16T13:33:26.810Z,25.98
2018-10-16T13:35:56.309Z,25.88
2018-10-16T13:38:25.197Z,25.81
2018-10-16T13:40:53.861Z,25.50
2018-10-16T13:43:22.809Z,25.52
2018-10-16T13:45:51.699Z,25.11
2018-10-16T13:48:20.521Z,24.27
2018-10-16T13:50:49.141Z,23.83
2018-10-16T13:53:17.827Z,24.15
2018-10-16T13:55:46.603Z,24.04
2018-10-16T13:58:15.293Z,23.87
2018-10-16T14:00:43.885Z,24.47
2018-10-16T14:03:12.725Z,24.80
2018-10-16T14:05:41.616Z,24.98
2018-10-16T14:08:10.253Z,24.50
2018-10-16T14:10:38.927Z,24.35
2018-10-16T14:13:07.635Z,24.99
2018-10-16T14:15:36.357Z,26.07
2018-10-16T14:18:05.458Z,26.49
2018-10-16T14:20:34.224Z,26.10
2018-10-16T14:23:02.792Z,26.51
2018-10-16T14:25:31.597Z,27.30
2018-10-16T14:28:00.431Z,27.60
2018-10-16T14:30:29.178Z,27.81
2018-10-16T14:32:57.752Z,27.80
2018-10-16T14:35:26.461Z,27.94
2018-10-16T14:37:55.318Z,28.34
2018-10-16T14:40:24.092Z,28.35
2018-10-16T14:42:52.908Z,28.36
2018-10-16T14:45:21.489Z,28.14
2018-10-16T14:47:50.177Z,28.10
2018-10-16T14:50:18.877Z,27.72
2018-10-16T14:52:47.675Z,27.26
2018-10-16T14:55:16.266Z,26.69
2018-10-16T14:57:45.014Z,25.82
2018-10-16T15:00:14.132Z,25.07
2018-10-16T15:02:42.811Z,24.51
2018-10-16T15:05:12.590Z,23.95
2018-10-16T15:07:41.473Z,23.45
2018-10-16T15:10:10.617Z,22.98
2018-10-16T15:12:39.153Z,22.66
2018-10-16T15:15:08.732Z,22.46
2018-10-16T15:17:37.534Z,22.23
2018-10-16T15:20:08.658Z,22.01
2018-10-16T15:22:37.235Z,21.87
2018-10-16T15:25:07.421Z,21.81
2018-10-16T15:27:36.209Z,21.67
2018-10-16T15:30:07.173Z,21.51
2018-10-16T15:32:35.890Z,21.44
2018-10-16T15:35:06.965Z,21.33
2018-10-16T15:37:36.040Z,21.16
2018-10-16T15:40:09.998Z,21.08
2018-10-16T15:42:39.063Z,21.08
2018-10-16T15:45:09.520Z,21.01
2018-10-16T15:47:38.786Z,20.96
2018-10-16T15:50:11.281Z,20.88
2018-10-16T15:52:41.316Z,20.79
2018-10-16T15:55:11.542Z,20.66
2018-10-16T15:57:40.491Z,20.41
2018-10-16T16:00:17.270Z,20.28
2018-10-16T16:02:48.314Z,20.11
2018-10-16T16:05:17.183Z,19.99
2018-10-16T16:07:46.030Z,19.96
2018-10-16T16:10:16.038Z,19.86
2018-10-16T16:12:45.162Z,19.70
2018-10-16T16:15:16.961Z,19.53
2018-10-16T16:17:45.747Z,19.48
2018-10-16T16:20:15.339Z,19.38
2018-10-16T16:22:44.524Z,19.32
2018-10-16T16:25:14.316Z,19.24
2018-10-16T16:27:43.162Z,18.98
2018-10-16T16:30:14.676Z,18.97
2018-10-16T16:32:43.424Z,18.87
2018-10-16T16:35:12.233Z,18.73
2018-10-16T16:37:40.946Z,18.67
2018-10-16T16:40:11.446Z,18.64
2018-10-16T16:42:39.985Z,18.51
2018-10-16T16:45:09.664Z,18.51
2018-10-16T16:47:38.515Z,18.40
2018-10-16T16:50:08.707Z,18.40
2018-10-16T16:52:37.508Z,18.32
2018-10-16T16:55:07.881Z,18.20
2018-10-16T16:57:36.587Z,18.13
2018-10-16T17:00:05.338Z,18.02
2018-10-16T17:02:34.178Z,17.94
2018-10-16T17:05:02.974Z,17.89
2018-10-16T17:07:31.804Z,17.80
2018-10-16T17:10:00.623Z,17.72
2018-10-16T17:12:29.441Z,17.62
2018-10-16T17:14:58.240Z,17.59
2018-10-16T17:17:27.089Z,17.48
2018-10-16T17:19:55.825Z,17.49
2018-10-16T17:22:24.591Z,17.50
2018-10-16T17:24:53.449Z,17.18
2018-10-16T17:27:21.981Z,17.17
2018-10-16T17:29:50.785Z,17.15
2018-10-16T17:32:19.472Z,17.07
2018-10-16T17:34:48.207Z,17.00
2018-10-16T17:37:16.918Z,17.00
2018-10-16T17:39:45.575Z,16.93
2018-10-16T17:42:14.402Z,16.88
2018-10-16T17:44:43.058Z,16.75
2018-10-16T17:47:11.420Z,16.68
2018-10-16T17:49:40.225Z,16.58
2018-10-16T17:52:08.934Z,16.51
2018-10-16T17:54:37.712Z,16.44
2018-10-16T17:57:06.478Z,16.34
2018-10-16T17:59:35.130Z,16.26
2018-10-16T18:02:03.824Z,16.19
2018-10-16T18:04:32.558Z,16.09
2018-10-16T18:07:01.193Z,16.00
2018-10-16T18:09:30.019Z,15.90
2018-10-16T18:11:58.802Z,15.90
2018-10-16T18:14:27.473Z,15.83
2018-10-16T18:16:56.156Z,15.81
2018-10-16T18:19:24.972Z,15.70
2018-10-16T18:21:53.654Z,15.56
2018-10-16T18:24:22.379Z,15.57
2018-10-16T18:26:51.189Z,15.54
2018-10-16T18:29:19.893Z,15.47
2018-10-16T18:31:48.678Z,15.42
2018-10-16T18:34:17.501Z,15.43
2018-10-16T18:36:46.261Z,15.33
2018-10-16T18:39:15.190Z,15.13
2018-10-16T18:41:44.025Z,14.73
2018-10-16T18:44:12.736Z,14.47
2018-10-16T18:46:41.412Z,14.24
2018-10-16T18:49:10.104Z,14.04
2018-10-16T18:51:38.888Z,14.10
2018-10-16T18:54:07.711Z,14.22
2018-10-16T18:56:36.512Z,14.20
2018-10-16T18:59:05.206Z,14.27
2018-10-16T19:01:33.876Z,14.25
2018-10-16T19:04:02.561Z,14.25
2018-10-16T19:06:31.343Z,14.25
2018-10-16T19:09:00.212Z,14.28
2018-10-16T19:11:28.730Z,14.28
2018-10-16T19:13:57.447Z,14.30
2018-10-16T19:16:26.120Z,14.31
2018-10-16T19:18:54.828Z,14.33
2018-10-16T19:21:23.476Z,14.32
2018-10-16T19:23:52.244Z,14.38
2018-10-16T19:26:20.941Z,14.37
2018-10-16T19:28:49.676Z,14.40
2018-10-16T19:31:18.487Z,14.40
2018-10-16T19:33:47.306Z,14.40
2018-10-16T19:36:16.159Z,14.34
2018-10-16T19:38:44.926Z,14.35
2018-10-16T19:41:13.761Z,14.28
2018-10-16T19:43:43.396Z,14.33
2018-10-16T19:46:11.965Z,14.33
2018-10-16T19:48:40.754Z,14.32
2018-10-16T19:51:09.543Z,14.27
2018-10-16T19:53:38.153Z,14.25
2018-10-16T19:56:07.088Z,14.23
2018-10-16T19:58:35.755Z,14.20
2018-10-16T20:01:04.477Z,14.21
2018-10-16T20:03:33.249Z,14.15
2018-10-16T20:06:02.104Z,14.12
2018-10-16T20:08:30.895Z,14.11
2018-10-16T20:10:59.715Z,14.05
2018-10-16T20:13:28.549Z,14.02
2018-10-16T20:15:57.116Z,13.92
2018-10-16T20:18:26.020Z,13.88
2018-10-16T20:20:54.747Z,13.84
2018-10-16T20:23:23.530Z,13.79
2018-10-16T20:25:52.797Z,13.67
2018-10-16T20:28:21.585Z,13.62
2018-10-16T20:30:50.168Z,13.53
2018-10-16T20:33:18.937Z,13.53
2018-10-16T20:35:47.661Z,13.53
2018-10-16T20:38:16.209Z,13.46
2018-10-16T20:40:44.909Z,13.15
2018-10-16T20:43:13.875Z,12.86
2018-10-16T20:45:42.501Z,12.93
2018-10-16T20:48:11.279Z,12.95
2018-10-16T20:50:40.103Z,12.92
2018-10-16T20:53:08.896Z,12.93
2018-10-16T20:55:37.697Z,12.94
2018-10-16T20:58:06.325Z,12.96
2018-10-16T21:00:35.197Z,12.96
2018-10-16T21:03:03.776Z,12.98
2018-10-16T21:05:32.696Z,12.96
2018-10-16T21:08:01.456Z,12.77
2018-10-16T21:10:30.320Z,12.37
2018-10-16T21:12:59.156Z,12.17
2018-10-16T21:15:27.923Z,12.09
2018-10-16T21:17:57.135Z,12.04
2018-10-16T21:20:26.027Z,12.12
2018-10-16T21:22:54.887Z,12.15
2018-10-16T21:25:23.558Z,12.24
2018-10-16T21:27:52.232Z,12.29
2018-10-16T21:30:20.920Z,12.37
2018-10-16T21:32:49.465Z,12.41
2018-10-16T21:35:18.247Z,12.42
2018-10-16T21:37:46.842Z,12.38
2018-10-16T21:40:15.636Z,12.33
2018-10-16T21:42:44.412Z,12.36
2018-10-16T21:45:13.165Z,12.38
2018-10-16T21:47:41.820Z,12.28
2018-10-16T21:50:10.527Z,12.29
2018-10-16T21:52:39.192Z,12.27
2018-10-16T21:55:08.057Z,12.18
2018-10-16T21:57:36.533Z,12.21
2018-10-16T22:00:06.094Z,12.18
2018-10-16T22:02:40.046Z,12.13
2018-10-16T22:05:08.755Z,12.18
2018-10-16T22:07:37.384Z,12.14
2018-10-16T22:10:06.608Z,12.02
2018-10-16T22:12:35.195Z,12.03
2018-10-16T22:15:03.862Z,12.01
2018-10-16T22:17:32.694Z,12.02
2018-10-16T22:20:01.332Z,12.07
2018-10-16T22:22:30.021Z,12.16
2018-10-16T22:24:58.630Z,12.23
2018-10-16T22:27:27.426Z,12.19
2018-10-16T22:29:56.192Z,12.23
2018-10-16T22:32:24.759Z,12.18
2018-10-16T22:34:53.615Z,12.14
2018-10-16T22:37:22.389Z,12.19
2018-10-16T22:39:51.056Z,12.22
2018-10-16T22:42:19.731Z,12.22
2018-10-16T22:44:48.432Z,12.14
2018-10-16T22:47:17.310Z,12.16
2018-10-16T22:49:45.984Z,12.11
2018-10-16T22:52:14.669Z,12.14
2018-10-16T22:54:43.234Z,12.09
2018-10-16T22:57:11.992Z,12.13
2018-10-16T22:59:40.877Z,11.87
2018-10-16T23:02:09.604Z,11.42
2018-10-16T23:04:38.380Z,11.31
2018-10-16T23:07:07.221Z,11.24
2018-10-16T23:09:36.013Z,11.25
2018-10-16T23:12:05.228Z,11.39
2018-10-16T23:14:34.036Z,11.40
2018-10-16T23:17:02.934Z,11.29
2018-10-16T23:19:31.704Z,11.42
2018-10-16T23:22:00.449Z,11.38
2018-10-16T23:24:29.277Z,11.51
2018-10-16T23:26:57.953Z,11.50
2018-10-16T23:29:26.794Z,11.46
2018-10-16T23:31:55.569Z,11.52
2018-10-16T23:34:24.437Z,11.46
2018-10-16T23:36:53.226Z,11.54
2018-10-16T23:39:21.909Z,11.63
2018-10-16T23:41:50.678Z,11.67
2018-10-16T23:44:19.504Z,11.68
2018-10-16T23:46:48.168Z,11.70
2018-10-16T23:49:16.855Z,11.80
2018-10-16T23:51:45.511Z,11.81
2018-10-16T23:54:14.355Z,11.89
2018-10-16T23:56:42.904Z,11.84
2018-10-16T23:59:11.655Z,11.80
